Time;durP1;ratioP1;P1;durP2;ratioP2;P2;SDS_P1;SDS_P2;PMS_P1;PMS_P2;Temp;Humidity;BMP_temperature;BMP_pressure;BME280_temperature;BME280_humidity;BME280_pressure;Samples;Min_cycle;Max_cycle;Signal;HPM_P1;HPM_P2
2022/04/17 00:01:10;;;;;;;;;;;23.20;38.80;;;;;;1573313;74;784;-67
2022/04/17 00:03:12;;;;;;;;;;;23.20;38.80;;;;;;1575621;74;802;-67
2022/04/17 00:05:14;;;;;;;;;;;23.20;38.90;;;;;;1581779;74;768;-67
2022/04/17 00:07:16;;;;;;;;;;;23.20;38.90;;;;;;1568381;74;1102;-64
2022/04/17 00:09:18;;;;;;;;;;;23.20;39.00;;;;;;1579078;74;1924;-68
2022/04/17 00:11:20;;;;;;;;;;;23.20;39.10;;;;;;1576863;74;706;-66
2022/04/17 00:13:21;;;;;;;;;;;23.30;39.20;;;;;;1573676;74;716;-69
2022/04/17 00:15:23;;;;;;;;;;;23.20;39.10;;;;;;1578688;74;696;-68
2022/04/17 00:17:25;;;;;;;;;;;23.20;39.10;;;;;;1587126;74;705;-66
2022/04/17 00:19:27;;;;;;;;;;;23.20;39.20;;;;;;1577935;74;750;-66
2022/04/17 00:21:29;;;;;;;;;;;23.10;39.20;;;;;;1576994;74;715;-67
2022/04/17 00:23:32;;;;;;;;;;;23.20;39.20;;;;;;1581031;74;736;-66
2022/04/17 00:25:34;;;;;;;;;;;23.10;39.20;;;;;;1578514;74;1180;-67
2022/04/17 00:27:38;;;;;;;;;;;23.20;39.10;;;;;;1572115;74;691;-69
2022/04/17 00:29:40;;;;;;;;;;;23.20;39.20;;;;;;1577206;74;1942;-65
2022/04/17 00:31:42;;;;;;;;;;;23.20;39.10;;;;;;1582762;74;712;-71
2022/04/17 00:33:44;;;;;;;;;;;23.20;39.20;;;;;;1577457;74;745;-66
2022/04/17 00:35:46;;;;;;;;;;;23.10;39.20;;;;;;1579443;74;1165;-68
2022/04/17 00:37:47;;;;;;;;;;;23.20;39.20;;;;;;1584709;74;737;-67
2022/04/17 00:39:49;;;;;;;;;;;23.20;39.20;;;;;;1584084;74;740;-67
2022/04/17 00:41:51;;;;;;;;;;;23.20;39.20;;;;;;1583708;74;758;-68
2022/04/17 00:43:54;;;;;;;;;;;23.10;39.30;;;;;;1573023;74;766;-68
2022/04/17 00:45:56;;;;;;;;;;;23.20;39.30;;;;;;1568342;74;221229;-52
2022/04/17 00:47:58;;;;;;;;;;;23.20;39.20;;;;;;1498113;79;704;-57
2022/04/17 00:50:00;;;;;;;;;;;23.20;39.30;;;;;;1501270;76;1959;-54
2022/04/17 00:52:03;;;;;;;;;;;23.10;39.40;;;;;;1513801;77;642;-55
2022/04/17 00:54:05;;;;;;;;;;;23.10;39.40;;;;;;1488028;79;998;-55
2022/04/17 00:56:07;;;;;;;;;;;23.20;39.30;;;;;;1512402;77;708;-55
2022/04/17 00:58:09;;;;;;;;;;;23.10;39.30;;;;;;1518805;77;636;-56
2022/04/17 01:00:11;;;;;;;;;;;23.20;39.40;;;;;;1488191;79;1125;-54
2022/04/17 01:02:16;;;;;;;;;;;23.20;39.40;;;;;;1510921;77;731;-55
2022/04/17 01:04:18;;;;;;;;;;;23.20;39.40;;;;;;1480224;79;852;-55
2022/04/17 01:06:20;;;;;;;;;;;23.10;39.40;;;;;;1503691;77;705;-57
2022/04/17 01:08:22;;;;;;;;;;;23.10;39.40;;;;;;1517015;77;668;-55
2022/04/17 01:10:24;;;;;;;;;;;23.20;39.40;;;;;;1523039;77;1939;-53
2022/04/17 01:12:26;;;;;;;;;;;23.10;39.50;;;;;;1509471;77;927;-54
2022/04/17 01:14:28;;;;;;;;;;;23.10;39.50;;;;;;1522264;77;689;-53
2022/04/17 01:16:30;;;;;;;;;;;23.10;39.40;;;;;;1510537;77;701;-55
2022/04/17 01:18:50;;;;;;;;;;;23.10;39.50;;;;;;1515196;77;1077;-54
2022/04/17 01:20:52;;;;;;;;;;;23.10;39.40;;;;;;1482413;80;762;-56
2022/04/17 01:27:34;;;;;;;;;;;23.00;39.40;;;;;;1484646;80;1626;-57
2022/04/17 01:29:37;;;;;;;;;;;23.10;39.50;;;;;;1488484;79;1930;-54
2022/04/17 01:31:39;;;;;;;;;;;23.10;39.50;;;;;;1502157;78;640;-55
2022/04/17 01:33:41;;;;;;;;;;;23.00;39.40;;;;;;1510960;77;672;-56
2022/04/17 01:35:43;;;;;;;;;;;23.10;39.50;;;;;;1515083;77;650;-57
2022/04/17 01:37:48;;;;;;;;;;;23.10;39.50;;;;;;1514192;77;757;-54
2022/04/17 01:39:50;;;;;;;;;;;23.10;39.50;;;;;;1517130;77;1141;-54
2022/04/17 01:41:52;;;;;;;;;;;23.10;39.50;;;;;;1508191;77;723;-55
2022/04/17 01:43:54;;;;;;;;;;;23.10;39.50;;;;;;1510341;77;786;-56
2022/04/17 01:45:56;;;;;;;;;;;23.10;39.50;;;;;;1506938;77;664;-55
2022/04/17 01:47:58;;;;;;;;;;;23.10;39.70;;;;;;1509031;77;787;-57
2022/04/17 01:50:00;;;;;;;;;;;23.10;39.60;;;;;;1512854;77;1942;-55
2022/04/17 01:52:01;;;;;;;;;;;23.10;39.60;;;;;;1510211;77;761;-56
2022/04/17 01:54:03;;;;;;;;;;;23.00;39.40;;;;;;1510041;77;745;-56
2022/04/17 01:56:05;;;;;;;;;;;23.10;39.70;;;;;;1507907;77;662;-58
2022/04/17 01:58:07;;;;;;;;;;;23.10;39.70;;;;;;1507684;79;670;-56
2022/04/17 02:00:10;;;;;;;;;;;23.10;39.70;;;;;;1500276;79;1115;-54
2022/04/17 02:02:11;;;;;;;;;;;23.10;39.70;;;;;;1501122;79;999;-56
2022/04/17 02:04:13;;;;;;;;;;;23.10;39.70;;;;;;1510782;78;910;-58
2022/04/17 02:06:15;;;;;;;;;;;23.10;39.70;;;;;;1485435;80;660;-58
2022/04/17 02:08:17;;;;;;;;;;;23.10;39.70;;;;;;1511399;79;689;-57
2022/04/17 02:10:19;;;;;;;;;;;23.20;39.70;;;;;;1475600;79;1966;-56
2022/04/17 02:12:22;;;;;;;;;;;23.10;39.70;;;;;;1511115;79;689;-56
2022/04/17 02:14:24;;;;;;;;;;;23.10;39.70;;;;;;1510493;78;655;-54
2022/04/17 02:16:26;;;;;;;;;;;23.10;39.70;;;;;;1503633;78;676;-57
2022/04/17 02:18:28;;;;;;;;;;;23.10;39.80;;;;;;1508860;79;1058;-59
2022/04/17 02:20:30;;;;;;;;;;;23.10;39.80;;;;;;1487069;78;1243;-57
2022/04/17 02:22:31;;;;;;;;;;;23.10;39.90;;;;;;1493675;79;584;-57
2022/04/17 02:24:33;;;;;;;;;;;23.10;39.90;;;;;;1523518;78;717;-56
2022/04/17 02:26:35;;;;;;;;;;;23.10;39.90;;;;;;1511540;78;586;-55
2022/04/17 02:28:37;;;;;;;;;;;23.00;39.80;;;;;;1483500;80;1135;-55
2022/04/17 02:30:39;;;;;;;;;;;23.10;39.90;;;;;;1506928;79;1945;-54
2022/04/17 02:32:41;;;;;;;;;;;23.10;40.00;;;;;;1508345;78;725;-56
2022/04/17 02:34:43;;;;;;;;;;;23.00;39.80;;;;;;1509059;79;641;-56
2022/04/17 02:36:45;;;;;;;;;;;23.00;39.80;;;;;;1483415;80;669;-56
2022/04/17 02:38:47;;;;;;;;;;;23.00;39.90;;;;;;1509507;78;1160;-54
2022/04/17 02:40:49;;;;;;;;;;;23.00;39.90;;;;;;1520634;78;796;-58
2022/04/17 02:42:53;;;;;;;;;;;23.10;40.00;;;;;;1508746;78;663;-56
2022/04/17 02:44:55;;;;;;;;;;;23.10;40.10;;;;;;1500926;78;964;-56
2022/04/17 02:49:16;;;;;;;;;;;23.00;40.00;;;;;;1506921;79;1930;-59
2022/04/17 02:51:18;;;;;;;;;;;23.00;40.00;;;;;;1510049;79;676;-58
2022/04/17 02:53:21;;;;;;;;;;;23.10;40.10;;;;;;1511207;79;674;-58
2022/04/17 02:55:23;;;;;;;;;;;23.10;40.20;;;;;;1483434;79;654;-55
2022/04/17 02:57:25;;;;;;;;;;;23.00;40.00;;;;;;1511366;79;657;-54
2022/04/17 02:59:27;;;;;;;;;;;23.00;40.10;;;;;;1492535;79;1172;-59
2022/04/17 03:06:10;;;;;;;;;;;23.00;40.10;;;;;;1513899;78;1879;-55
2022/04/17 03:08:12;;;;;;;;;;;23.00;40.20;;;;;;1486455;80;1565;-53
2022/04/17 03:10:14;;;;;;;;;;;23.00;40.20;;;;;;1516118;77;1921;-55
2022/04/17 03:12:16;;;;;;;;;;;23.00;40.20;;;;;;1510607;79;720;-59
2022/04/17 03:14:18;;;;;;;;;;;23.00;40.30;;;;;;1510967;77;715;-54
2022/04/17 03:16:20;;;;;;;;;;;23.00;40.30;;;;;;1506858;78;744;-54
2022/04/17 03:18:22;;;;;;;;;;;23.00;40.20;;;;;;1506898;79;656;-55
2022/04/17 03:20:24;;;;;;;;;;;23.00;40.30;;;;;;1506804;79;1127;-57
2022/04/17 03:22:28;;;;;;;;;;;23.00;40.30;;;;;;1508080;79;598;-54
2022/04/17 03:24:31;;;;;;;;;;;23.00;40.30;;;;;;1486931;79;902;-56
2022/04/17 03:26:36;;;;;;;;;;;23.00;40.30;;;;;;1509401;79;691;-55
2022/04/17 03:28:37;;;;;;;;;;;23.00;40.30;;;;;;1506850;78;1627;-55
2022/04/17 03:30:39;;;;;;;;;;;23.00;40.30;;;;;;1511205;79;1948;-56
2022/04/17 03:32:41;;;;;;;;;;;23.00;40.40;;;;;;1511439;79;670;-58
2022/04/17 03:34:43;;;;;;;;;;;23.00;40.40;;;;;;1483441;79;659;-55
2022/04/17 03:36:47;;;;;;;;;;;23.00;40.40;;;;;;1511274;79;670;-56
2022/04/17 03:38:48;;;;;;;;;;;23.00;40.40;;;;;;1507107;78;1511;-54
2022/04/17 03:40:50;;;;;;;;;;;23.00;40.50;;;;;;1511242;79;658;-57
2022/04/17 03:42:52;;;;;;;;;;;23.00;40.50;;;;;;1507060;78;686;-56
2022/04/17 03:44:54;;;;;;;;;;;23.00;40.50;;;;;;1511365;79;695;-54
2022/04/17 03:46:56;;;;;;;;;;;22.90;40.50;;;;;;1511252;79;675;-55
2022/04/17 03:48:58;;;;;;;;;;;23.00;40.50;;;;;;1511322;78;1194;-54
2022/04/17 03:51:00;;;;;;;;;;;22.90;40.50;;;;;;1487399;79;1920;-55
2022/04/17 03:53:02;;;;;;;;;;;23.00;40.60;;;;;;1511084;79;675;-54
2022/04/17 03:55:05;;;;;;;;;;;22.90;40.60;;;;;;1510162;78;651;-56
2022/04/17 03:57:07;;;;;;;;;;;23.00;40.70;;;;;;1472466;80;659;-53
2022/04/17 03:59:09;;;;;;;;;;;22.90;40.60;;;;;;1508714;79;1105;-57
2022/04/17 04:01:11;;;;;;;;;;;23.00;40.70;;;;;;1511339;79;754;-55
2022/04/17 04:03:13;;;;;;;;;;;23.00;40.70;;;;;;1510972;79;641;-54
2022/04/17 04:05:15;;;;;;;;;;;22.90;40.70;;;;;;1511345;79;661;-53
2022/04/17 04:07:16;;;;;;;;;;;22.80;40.60;;;;;;1483510;80;755;-56
2022/04/17 04:09:18;;;;;;;;;;;22.90;40.70;;;;;;1481459;80;1138;-56
2022/04/17 04:11:20;;;;;;;;;;;22.90;40.70;;;;;;1515804;78;1933;-56
2022/04/17 04:13:22;;;;;;;;;;;22.90;40.70;;;;;;1481570;80;740;-55
2022/04/17 04:15:24;;;;;;;;;;;23.00;40.80;;;;;;1503722;78;1003;-58
2022/04/17 04:17:26;;;;;;;;;;;22.90;40.70;;;;;;1486702;80;674;-56
2022/04/17 04:19:28;;;;;;;;;;;23.00;40.70;;;;;;1486579;78;1155;-55
2022/04/17 04:21:30;;;;;;;;;;;23.00;40.70;;;;;;1504317;77;665;-58
2022/04/17 04:23:32;;;;;;;;;;;22.90;40.80;;;;;;1516266;78;692;-58
2022/04/17 04:25:34;;;;;;;;;;;23.00;40.80;;;;;;1510706;78;992;-54
2022/04/17 04:29:56;;;;;;;;;;;22.90;40.80;;;;;;1511099;78;1927;-54
2022/04/17 04:31:57;;;;;;;;;;;22.80;40.70;;;;;;1511266;79;717;-57
2022/04/17 04:33:59;;;;;;;;;;;22.90;40.80;;;;;;1483466;80;672;-57
2022/04/17 04:36:01;;;;;;;;;;;22.90;40.80;;;;;;1510674;79;637;-54
2022/04/17 04:38:05;;;;;;;;;;;22.90;40.80;;;;;;1510933;79;651;-55
2022/04/17 04:40:07;;;;;;;;;;;22.90;40.90;;;;;;1510808;78;1128;-58
2022/04/17 04:42:09;;;;;;;;;;;22.90;40.90;;;;;;1511001;79;662;-58
2022/04/17 04:44:11;;;;;;;;;;;22.90;40.80;;;;;;1510580;79;686;-57
2022/04/17 04:46:13;;;;;;;;;;;22.90;40.90;;;;;;1510841;79;670;-54
2022/04/17 04:48:15;;;;;;;;;;;22.80;40.80;;;;;;1510984;79;643;-58
2022/04/17 04:50:17;;;;;;;;;;;22.90;40.90;;;;;;1495014;78;1948;-56
2022/04/17 04:52:21;;;;;;;;;;;22.90;40.90;;;;;;1501250;78;684;-56
2022/04/17 04:54:22;;;;;;;;;;;22.90;41.00;;;;;;1506733;79;1012;-57
2022/04/17 04:56:24;;;;;;;;;;;22.90;41.00;;;;;;1510545;79;689;-56
2022/04/17 04:58:26;;;;;;;;;;;22.90;41.00;;;;;;1511157;79;686;-59
2022/04/17 05:00:28;;;;;;;;;;;22.90;41.00;;;;;;1510942;78;1183;-57
2022/04/17 05:02:30;;;;;;;;;;;22.90;41.00;;;;;;1511056;79;685;-56
2022/04/17 05:04:33;;;;;;;;;;;22.80;40.90;;;;;;1510646;77;779;-57
2022/04/17 05:06:35;;;;;;;;;;;22.90;41.00;;;;;;1483403;80;662;-56
2022/04/17 05:08:37;;;;;;;;;;;22.80;40.90;;;;;;1511278;78;1164;-56
2022/04/17 05:10:39;;;;;;;;;;;22.90;41.00;;;;;;1483510;80;1900;-56
2022/04/17 05:12:41;;;;;;;;;;;22.90;41.10;;;;;;1481784;79;685;-56
2022/04/17 05:14:44;;;;;;;;;;;22.90;41.10;;;;;;1516671;78;670;-54
2022/04/17 05:16:46;;;;;;;;;;;22.80;41.00;;;;;;1491332;80;684;-57
2022/04/17 05:18:52;;;;;;;;;;;22.90;41.10;;;;;;1504534;79;1145;-57
2022/04/17 05:20:51;;;;;;;;;;;22.80;41.20;;;;;;1510407;79;1128;-56
2022/04/17 05:23:03;;;;;;;;;;;23.00;41.30;;;;;;1506599;77;957;-56
2022/04/17 05:24:57;;;;;;;;;;;22.90;41.30;;;;;;1500255;79;1119;-54
2022/04/17 05:27:00;;;;;;;;;;;22.90;41.30;;;;;;1486714;80;664;-58
2022/04/17 05:29:02;;;;;;;;;;;22.90;41.30;;;;;;1497971;79;1177;-56
2022/04/17 05:31:04;;;;;;;;;;;22.90;41.20;;;;;;1496552;79;1907;-56
2022/04/17 05:33:06;;;;;;;;;;;22.80;41.20;;;;;;1486167;79;660;-56
2022/04/17 05:35:08;;;;;;;;;;;23.00;41.10;;;;;;1499582;79;666;-56
2022/04/17 05:37:10;;;;;;;;;;;22.90;41.10;;;;;;1513194;78;730;-55
2022/04/17 05:39:12;;;;;;;;;;;22.90;41.10;;;;;;1513168;78;1094;-59
2022/04/17 05:41:14;;;;;;;;;;;22.90;41.10;;;;;;1513095;78;800;-58
2022/04/17 05:43:16;;;;;;;;;;;22.90;41.10;;;;;;1509807;78;714;-57
2022/04/17 05:45:18;;;;;;;;;;;22.90;41.10;;;;;;1514654;77;607;-58
2022/04/17 05:47:20;;;;;;;;;;;22.90;41.20;;;;;;1488806;79;687;-57
2022/04/17 05:49:22;;;;;;;;;;;22.90;41.20;;;;;;1481118;80;1212;-57
2022/04/17 05:51:23;;;;;;;;;;;23.00;41.20;;;;;;1515814;77;1943;-56
2022/04/17 05:53:25;;;;;;;;;;;23.00;41.10;;;;;;1521438;77;682;-53
2022/04/17 05:55:27;;;;;;;;;;;23.10;41.30;;;;;;1510705;79;647;-56
2022/04/17 05:57:29;;;;;;;;;;;23.20;41.00;;;;;;1476932;79;654;-56
2022/04/17 05:59:32;;;;;;;;;;;23.20;41.00;;;;;;1504258;78;1174;-58
2022/04/17 06:01:34;;;;;;;;;;;23.20;41.00;;;;;;1483777;80;714;-57
2022/04/17 06:03:36;;;;;;;;;;;23.20;40.70;;;;;;1483562;79;742;-59
2022/04/17 06:05:38;;;;;;;;;;;23.30;40.60;;;;;;1486513;80;660;-58
2022/04/17 06:07:40;;;;;;;;;;;23.30;40.70;;;;;;1486527;80;629;-58
2022/04/17 06:09:42;;;;;;;;;;;23.20;41.00;;;;;;1486478;80;1166;-57
2022/04/17 06:11:44;;;;;;;;;;;23.30;41.30;;;;;;1510552;78;1926;-58
2022/04/17 06:13:46;;;;;;;;;;;23.30;41.50;;;;;;1516351;78;665;-58
2022/04/17 06:15:48;;;;;;;;;;;23.30;41.80;;;;;;1510872;79;677;-58
2022/04/17 06:17:50;;;;;;;;;;;23.30;41.80;;;;;;1511144;78;689;-57
2022/04/17 06:19:51;;;;;;;;;;;23.50;41.80;;;;;;1511040;78;1136;-58
2022/04/17 06:21:53;;;;;;;;;;;23.50;41.50;;;;;;1511189;79;672;-57
2022/04/17 06:23:55;;;;;;;;;;;23.70;41.20;;;;;;1486969;79;652;-59
2022/04/17 06:25:57;;;;;;;;;;;23.70;40.80;;;;;;1485188;79;691;-59
2022/04/17 06:27:59;;;;;;;;;;;23.80;40.50;;;;;;1509591;77;655;-58
2022/04/17 06:30:03;;;;;;;;;;;23.90;40.40;;;;;;1483243;79;1208;-57
2022/04/17 06:32:06;;;;;;;;;;;23.90;40.20;;;;;;1483715;79;1958;-57
2022/04/17 06:34:08;;;;;;;;;;;23.90;39.90;;;;;;1485069;78;706;-57
2022/04/17 06:36:10;;;;;;;;;;;24.00;39.80;;;;;;1509123;77;658;-59
2022/04/17 06:38:13;;;;;;;;;;;24.00;39.60;;;;;;1482159;79;689;-57
2022/04/17 06:40:16;;;;;;;;;;;24.00;38.90;;;;;;1485511;79;1098;-58
2022/04/17 06:42:18;;;;;;;;;;;24.00;38.80;;;;;;1522965;77;672;-58
2022/04/17 06:44:20;;;;;;;;;;;24.00;38.60;;;;;;1486207;79;657;-57
2022/04/17 06:46:21;;;;;;;;;;;24.00;38.60;;;;;;1518185;77;653;-57
2022/04/17 06:48:23;;;;;;;;;;;24.00;38.60;;;;;;1490121;79;678;-59
2022/04/17 06:50:25;;;;;;;;;;;24.00;38.60;;;;;;1493581;78;1095;-57
2022/04/17 06:52:27;;;;;;;;;;;24.10;38.60;;;;;;1515747;77;1942;-57
2022/04/17 06:54:29;;;;;;;;;;;24.10;38.50;;;;;;1485792;79;573;-59
2022/04/17 06:56:31;;;;;;;;;;;24.10;38.40;;;;;;1486478;78;716;-58
2022/04/17 06:58:33;;;;;;;;;;;24.20;38.30;;;;;;1479690;79;1166;-58
2022/04/17 07:00:35;;;;;;;;;;;24.30;38.40;;;;;;1521153;77;681;-57
2022/04/17 07:02:37;;;;;;;;;;;24.20;38.10;;;;;;1491450;79;690;-57
2022/04/17 07:04:39;;;;;;;;;;;24.30;38.10;;;;;;1484162;79;911;-58
2022/04/17 07:06:41;;;;;;;;;;;24.20;37.90;;;;;;1476868;79;633;-57
2022/04/17 07:08:43;;;;;;;;;;;24.30;38.00;;;;;;1489059;79;1162;-58
2022/04/17 07:10:45;;;;;;;;;;;24.30;37.90;;;;;;1498828;77;1938;-57
2022/04/17 07:12:47;;;;;;;;;;;24.30;37.80;;;;;;1498165;79;674;-59
2022/04/17 07:14:49;;;;;;;;;;;24.30;37.80;;;;;;1457935;81;662;-57
2022/04/17 07:16:51;;;;;;;;;;;24.40;37.80;;;;;;1464035;79;673;-57
2022/04/17 07:18:53;;;;;;;;;;;24.30;37.80;;;;;;1523412;77;1156;-58
2022/04/17 07:20:55;;;;;;;;;;;24.40;37.70;;;;;;1484219;78;681;-57
2022/04/17 07:22:57;;;;;;;;;;;24.40;37.60;;;;;;1506890;77;679;-57
2022/04/17 07:25:01;;;;;;;;;;;24.40;37.50;;;;;;1500713;79;733;-56
2022/04/17 07:27:03;;;;;;;;;;;24.50;37.60;;;;;;1502557;79;569;-55
2022/04/17 07:29:05;;;;;;;;;;;24.50;37.60;;;;;;1502584;79;1183;-54
2022/04/17 07:31:08;;;;;;;;;;;24.50;37.50;;;;;;1503266;78;1888;-55
2022/04/17 07:33:10;;;;;;;;;;;24.50;37.40;;;;;;1502444;78;680;-57
2022/04/17 07:35:12;;;;;;;;;;;24.50;37.40;;;;;;1491106;79;667;-56
2022/04/17 07:37:13;;;;;;;;;;;24.50;37.30;;;;;;1504351;78;633;-56
2022/04/17 07:39:18;;;;;;;;;;;24.50;37.10;;;;;;1471522;79;1157;-54
2022/04/17 07:41:20;;;;;;;;;;;24.60;36.90;;;;;;1501739;78;677;-55
2022/04/17 07:43:22;;;;;;;;;;;24.60;36.50;;;;;;1504340;78;713;-54
2022/04/17 07:45:24;;;;;;;;;;;24.60;35.90;;;;;;1499177;78;721;-54
2022/04/17 07:47:26;;;;;;;;;;;24.50;35.30;;;;;;1506398;78;678;-57
2022/04/17 07:49:28;;;;;;;;;;;24.50;34.90;;;;;;1502364;77;1109;-57
2022/04/17 07:51:30;;;;;;;;;;;24.50;34.40;;;;;;1499636;78;1938;-57
2022/04/17 07:53:31;;;;;;;;;;;24.40;33.30;;;;;;1479519;79;686;-57
2022/04/17 07:55:34;;;;;;;;;;;24.40;32.70;;;;;;1488353;79;647;-57
2022/04/17 07:59:55;;;;;;;;;;;24.30;34.20;;;;;;1495882;79;1643;-57
2022/04/17 08:02:11;;;;;;;;;;;24.40;34.60;;;;;;1502438;79;673;-56
2022/04/17 08:04:01;;;;;;;;;;;24.40;34.60;;;;;;1499537;79;1131;-56
2022/04/17 08:06:05;;;;;;;;;;;24.40;34.40;;;;;;1502201;79;693;-58
2022/04/17 08:08:08;;;;;;;;;;;24.40;34.50;;;;;;1489034;78;694;-55
2022/04/17 08:10:10;;;;;;;;;;;24.50;34.60;;;;;;1503074;78;1128;-56
2022/04/17 08:12:12;;;;;;;;;;;24.50;34.50;;;;;;1494010;78;1912;-55
2022/04/17 08:14:14;;;;;;;;;;;24.50;34.40;;;;;;1497149;78;674;-53
2022/04/17 08:16:18;;;;;;;;;;;24.50;34.40;;;;;;1500238;78;745;-56
2022/04/17 08:18:19;;;;;;;;;;;24.60;34.60;;;;;;1500111;78;760;-57
2022/04/17 08:20:21;;;;;;;;;;;24.50;34.60;;;;;;1501311;78;1113;-56
2022/04/17 08:22:23;;;;;;;;;;;24.60;34.50;;;;;;1501360;78;721;-55
2022/04/17 08:24:25;;;;;;;;;;;24.50;34.60;;;;;;1502318;79;634;-55
2022/04/17 08:26:27;;;;;;;;;;;24.60;34.60;;;;;;1510369;78;700;-56
2022/04/17 08:28:29;;;;;;;;;;;24.60;34.60;;;;;;1509678;78;737;-58
2022/04/17 08:30:31;;;;;;;;;;;24.60;34.60;;;;;;1509984;78;1177;-57
2022/04/17 08:32:33;;;;;;;;;;;24.60;34.60;;;;;;1502105;79;1941;-57
2022/04/17 08:34:35;;;;;;;;;;;24.60;34.60;;;;;;1502412;79;469;-57
2022/04/17 08:36:36;;;;;;;;;;;24.60;34.50;;;;;;1502522;79;658;-53
2022/04/17 08:38:40;;;;;;;;;;;24.60;34.60;;;;;;1502606;79;1156;-55
2022/04/17 08:40:42;;;;;;;;;;;24.50;34.60;;;;;;1501675;78;655;-54
2022/04/17 08:42:47;;;;;;;;;;;24.60;34.60;;;;;;1511643;78;742;-53
2022/04/17 08:44:51;;;;;;;;;;;24.60;34.60;;;;;;1500467;79;623;-56
2022/04/17 08:46:53;;;;;;;;;;;24.60;34.60;;;;;;1478023;80;626;-54
2022/04/17 08:48:54;;;;;;;;;;;24.60;34.70;;;;;;1481330;78;1098;-58
2022/04/17 08:50:56;;;;;;;;;;;24.60;34.70;;;;;;1504728;78;718;-58
2022/04/17 08:52:58;;;;;;;;;;;24.70;34.70;;;;;;1502127;78;1917;-56
2022/04/17 08:55:00;;;;;;;;;;;24.60;34.50;;;;;;1499351;78;736;-59
2022/04/17 08:57:04;;;;;;;;;;;24.70;34.70;;;;;;1510037;78;695;-57
2022/04/17 08:59:06;;;;;;;;;;;24.70;34.80;;;;;;1495922;78;1148;-56
2022/04/17 09:01:09;;;;;;;;;;;24.70;34.70;;;;;;1503704;78;678;-54
2022/04/17 09:03:13;;;;;;;;;;;24.60;33.70;;;;;;1497473;77;1803;-56
2022/04/17 09:05:19;;;;;;;;;;;24.60;34.10;;;;;;1486162;78;1988;-57
2022/04/17 09:07:20;;;;;;;;;;;24.60;34.30;;;;;;1499390;78;680;-57
2022/04/17 09:09:22;;;;;;;;;;;24.60;34.40;;;;;;1499226;78;1120;-55
2022/04/17 09:11:31;;;;;;;;;;;24.60;34.40;;;;;;1505756;78;670;-56
2022/04/17 09:13:33;;;;;;;;;;;24.60;34.40;;;;;;1504286;78;746;-56
2022/04/17 09:15:36;;;;;;;;;;;24.70;34.40;;;;;;1493149;78;914;-56
2022/04/17 09:17:37;;;;;;;;;;;24.50;34.30;;;;;;1496385;79;685;-55
2022/04/17 09:19:39;;;;;;;;;;;24.60;34.40;;;;;;1493801;79;1249;-55
2022/04/17 09:21:41;;;;;;;;;;;24.50;34.40;;;;;;1495574;79;838;-55
2022/04/17 09:23:43;;;;;;;;;;;24.50;34.40;;;;;;1495762;79;650;-58
2022/04/17 09:25:45;;;;;;;;;;;24.50;34.50;;;;;;1496303;79;677;-54
2022/04/17 09:27:57;;;;;;;;;;;24.50;34.60;;;;;;1497098;79;694;-55
2022/04/17 09:29:59;;;;;;;;;;;24.50;34.60;;;;;;1497161;79;1224;-57
2022/04/17 09:32:01;;;;;;;;;;;24.50;34.70;;;;;;1492768;79;1957;-57
2022/04/17 09:34:04;;;;;;;;;;;24.50;34.70;;;;;;1492777;79;683;-58
2022/04/17 09:36:08;;;;;;;;;;;24.50;34.70;;;;;;1494548;79;1832;-54
2022/04/17 09:38:10;;;;;;;;;;;24.50;34.70;;;;;;1494337;79;712;-60
2022/04/17 09:40:12;;;;;;;;;;;24.50;34.70;;;;;;1500212;79;1093;-60
2022/04/17 09:42:14;;;;;;;;;;;24.50;34.90;;;;;;1498610;79;676;-57
2022/04/17 09:44:17;;;;;;;;;;;24.50;34.90;;;;;;1498841;79;670;-59
2022/04/17 09:46:19;;;;;;;;;;;24.40;34.90;;;;;;1469076;80;1149;-57
2022/04/17 09:48:21;;;;;;;;;;;24.40;34.90;;;;;;1498086;79;731;-58
2022/04/17 09:50:35;;;;;;;;;;;24.40;35.00;;;;;;1500064;79;1117;-58
2022/04/17 09:52:40;;;;;;;;;;;24.40;35.00;;;;;;1498699;79;1933;-58
2022/04/17 09:54:42;;;;;;;;;;;24.30;35.10;;;;;;1499176;79;671;-55
2022/04/17 09:56:45;;;;;;;;;;;24.30;35.20;;;;;;1499555;79;692;-58
2022/04/17 09:58:51;;;;;;;;;;;24.40;35.30;;;;;;1492159;78;1153;-57
2022/04/17 10:00:56;;;;;;;;;;;24.30;35.40;;;;;;1498402;79;921;-56
2022/04/17 10:02:54;;;;;;;;;;;24.30;35.40;;;;;;1499884;79;1542;-57
2022/04/17 10:04:56;;;;;;;;;;;24.30;35.40;;;;;;1499284;79;683;-59
2022/04/17 10:07:04;;;;;;;;;;;24.20;35.40;;;;;;1500473;79;982;-57
2022/04/17 10:09:05;;;;;;;;;;;24.30;35.50;;;;;;1498825;79;1124;-57
2022/04/17 10:11:07;;;;;;;;;;;24.20;35.50;;;;;;1496972;79;702;-54
2022/04/17 10:13:09;;;;;;;;;;;24.20;35.50;;;;;;1500274;79;1949;-55
2022/04/17 10:15:11;;;;;;;;;;;24.20;35.60;;;;;;1498839;79;666;-56
2022/04/17 10:17:13;;;;;;;;;;;24.20;35.60;;;;;;1499534;79;743;-59
2022/04/17 10:19:16;;;;;;;;;;;24.20;35.70;;;;;;1501403;79;1152;-57
2022/04/17 10:21:18;;;;;;;;;;;24.20;35.70;;;;;;1501172;79;779;-57
2022/04/17 10:23:20;;;;;;;;;;;24.10;35.80;;;;;;1468624;79;833;-58
2022/04/17 10:25:22;;;;;;;;;;;24.10;35.90;;;;;;1495428;79;700;-59
2022/04/17 10:27:25;;;;;;;;;;;24.20;36.00;;;;;;1500304;79;679;-58
2022/04/17 10:29:28;;;;;;;;;;;24.20;36.00;;;;;;1500573;79;1255;-58
2022/04/17 10:31:32;;;;;;;;;;;24.20;36.10;;;;;;1501229;79;714;-60
2022/04/17 10:33:42;;;;;;;;;;;24.20;36.00;;;;;;1489857;79;1931;-58
2022/04/17 10:35:48;;;;;;;;;;;24.30;36.10;;;;;;1482913;79;606;-58
2022/04/17 10:38:08;;;;;;;;;;;24.40;36.30;;;;;;1490282;79;708;-59
2022/04/17 10:40:11;;;;;;;;;;;24.20;36.00;;;;;;1482112;80;1165;-58
2022/04/17 10:42:12;;;;;;;;;;;24.30;36.10;;;;;;1495212;79;695;-57
2022/04/17 10:44:15;;;;;;;;;;;24.30;36.10;;;;;;1484768;78;723;-56
2022/04/17 10:46:18;;;;;;;;;;;24.30;36.20;;;;;;1504826;78;662;-56
2022/04/17 10:48:21;;;;;;;;;;;24.20;36.20;;;;;;1496340;78;676;-57
2022/04/17 10:50:24;;;;;;;;;;;24.30;36.50;;;;;;1508950;77;1123;-56
2022/04/17 10:52:32;;;;;;;;;;;24.20;36.50;;;;;;1482253;79;1931;-56
2022/04/17 10:54:45;;;;;;;;;;;24.20;36.60;;;;;;1504437;78;669;-57
2022/04/17 10:56:57;;;;;;;;;;;24.20;36.70;;;;;;1483189;79;1733;-58
2022/04/17 10:59:00;;;;;;;;;;;24.20;36.80;;;;;;1511033;77;1131;-60
2022/04/17 11:01:02;;;;;;;;;;;24.20;36.50;;;;;;1502531;79;684;-58
2022/04/17 11:03:11;;;;;;;;;;;24.10;36.70;;;;;;1505110;79;718;-56
2022/04/17 11:05:13;;;;;;;;;;;24.10;36.80;;;;;;1499778;77;685;-56
2022/04/17 11:07:16;;;;;;;;;;;24.20;36.90;;;;;;1508942;77;682;-56
2022/04/17 11:09:22;;;;;;;;;;;24.10;37.00;;;;;;1510272;77;1154;-56
2022/04/17 11:11:25;;;;;;;;;;;24.00;36.90;;;;;;1505803;77;706;-58
2022/04/17 11:13:27;;;;;;;;;;;24.00;37.00;;;;;;1502114;77;1953;-58
2022/04/17 11:15:29;;;;;;;;;;;24.00;37.10;;;;;;1484876;79;679;-58
2022/04/17 11:17:31;;;;;;;;;;;24.00;37.10;;;;;;1530254;77;681;-56
2022/04/17 11:19:34;;;;;;;;;;;24.00;37.20;;;;;;1509342;77;1234;-56
2022/04/17 11:21:46;;;;;;;;;;;24.00;37.20;;;;;;1511232;77;680;-56
2022/04/17 11:23:53;;;;;;;;;;;24.00;37.10;;;;;;1480515;79;676;-56
2022/04/17 11:25:55;;;;;;;;;;;23.90;37.20;;;;;;1507156;77;685;-57
2022/04/17 11:28:02;;;;;;;;;;;23.90;37.20;;;;;;1486783;78;729;-57
2022/04/17 11:30:00;;;;;;;;;;;23.90;37.30;;;;;;1487948;78;1572;-58
2022/04/17 11:32:02;;;;;;;;;;;23.90;37.30;;;;;;1494866;78;721;-58
2022/04/17 11:34:04;;;;;;;;;;;24.00;37.30;;;;;;1483664;78;1948;-56
2022/04/17 11:36:07;;;;;;;;;;;23.90;37.30;;;;;;1496270;78;686;-57
2022/04/17 11:38:09;;;;;;;;;;;23.90;37.30;;;;;;1504316;78;1701;-57
2022/04/17 11:40:12;;;;;;;;;;;23.90;37.30;;;;;;1488151;78;1165;-58
2022/04/17 11:42:14;;;;;;;;;;;23.90;37.30;;;;;;1488102;78;679;-56
2022/04/17 11:44:16;;;;;;;;;;;23.80;37.20;;;;;;1496980;78;684;-57
2022/04/17 11:46:18;;;;;;;;;;;23.90;37.30;;;;;;1476384;79;740;-58
2022/04/17 11:48:20;;;;;;;;;;;23.80;37.30;;;;;;1494529;79;494;-56
2022/04/17 11:50:27;;;;;;;;;;;23.80;37.20;;;;;;1478117;80;1130;-58
2022/04/17 11:52:29;;;;;;;;;;;23.80;37.30;;;;;;1492706;79;1930;-58
2022/04/17 11:54:34;;;;;;;;;;;23.70;37.30;;;;;;1471916;80;1201;-56
2022/04/17 11:56:51;;;;;;;;;;;23.70;37.30;;;;;;1502138;79;677;-57
2022/04/17 11:58:53;;;;;;;;;;;23.70;37.30;;;;;;1490014;79;1137;-55
2022/04/17 12:00:56;;;;;;;;;;;23.70;37.30;;;;;;1449759;81;1138;-57
2022/04/17 12:03:03;;;;;;;;;;;23.70;37.40;;;;;;1482704;79;721;-56
2022/04/17 12:05:10;;;;;;;;;;;23.70;37.30;;;;;;1502491;79;664;-56
2022/04/17 12:07:12;;;;;;;;;;;23.70;37.30;;;;;;1501157;79;1100;-56
2022/04/17 12:09:14;;;;;;;;;;;23.70;37.40;;;;;;1502421;79;1129;-57
2022/04/17 12:11:18;;;;;;;;;;;23.70;37.30;;;;;;1501946;79;688;-58
2022/04/17 12:13:20;;;;;;;;;;;23.70;37.40;;;;;;1502543;79;1916;-55
2022/04/17 12:15:22;;;;;;;;;;;23.60;37.30;;;;;;1498772;79;773;-56
2022/04/17 12:17:24;;;;;;;;;;;23.70;37.40;;;;;;1478168;80;677;-56
2022/04/17 12:19:26;;;;;;;;;;;23.70;37.40;;;;;;1478030;80;1102;-56
2022/04/17 12:21:32;;;;;;;;;;;23.70;37.40;;;;;;1488511;79;724;-57
2022/04/17 12:23:35;;;;;;;;;;;23.60;37.30;;;;;;1489811;79;1338;-56
2022/04/17 12:25:37;;;;;;;;;;;23.60;37.30;;;;;;1489076;79;653;-55
2022/04/17 12:27:39;;;;;;;;;;;23.60;37.30;;;;;;1502458;79;661;-55